• Join FlightAware (Why Join?)
  • Login
  • US Flag 
07:09AM EDT


 

Airport Tracker/Info


-or-


 

Live Flight TrackerFlight Track Log ✈ ASQ5415 ✈ 24-Jul-2013 ✈ KMOB - KATL

Flight Track Log - Related Links

Times and Time Zones

All times are in EDT time to prevent confusion due to time zone crossing. See the ASQ5415 flight status page for this flight to view local times or setup timezone preferences in your user account.

Time Position Orientation Groundspeed Altitude Reporting Facility
EDT Latitude Longitude Course Direction KTS MPH feet Rate Location/Type
07:07AM 30.7211 -88.2631 26° Northeast 158 182 1,500  Level Houston Center
07:08AM 30.7700 -88.2356 26° Northeast 200 230 3,100 1,680 Climbing Houston Center
07:09AM 30.8342 -88.1992 26° Northeast 248 285 5,000 1,920 Climbing Houston Center
07:10AM 30.8903 -88.1386 43° Northeast 277 319 7,000 2,160 Climbing Houston Center
07:11AM 30.9550 -88.0514 49° Northeast 299 344 9,400 1,980 Climbing Houston Center
07:12AM 31.0119 -87.9761 49° Northeast 312 359 11,100 1,680 Climbing Houston Center
07:13AM 31.0706 -87.8975 49° Northeast 322 371 12,900 1,680 Climbing Houston Center
07:14AM 31.1311 -87.8178 48° Northeast 329 379 14,600 1,620 Climbing Houston Center
07:15AM 31.1922 -87.7350 49° Northeast 336 387 16,200 1,500 Climbing Houston Center
07:16AM 31.2550 -87.6517 49° Northeast 342 394 17,700 1,260 Climbing Houston Center
07:17AM 31.3142 -87.5694 50° Northeast 346 398 18,800 1,200 Climbing Houston Center
07:18AM 31.3833 -87.4781 48° Northeast 357 411 20,200 960 Climbing Houston Center
07:19AM 31.4486 -87.3886 49° Northeast 361 415 20,800 540 Climbing Houston Center
07:20AM 31.5181 -87.2936 49° Northeast 381 438 21,300 480 Climbing Houston Center
07:21AM 31.5883 -87.1958 50° Northeast 392 451 21,800 540 Climbing Houston Center
07:22AM 31.6611 -87.0975 49° Northeast 400 460 22,400 540 Climbing Houston Center
07:23AM 31.7483 -86.9758 50° Northeast 406 467 23,000 540 Climbing Houston Center
07:24AM 31.8219 -86.8744 49° Northeast 410 472 23,500 480 Climbing Houston Center
07:25AM 31.8953 -86.7725 50° Northeast 408 470 24,000 240 Climbing Houston Center
07:26AM 31.9686 -86.6708 50° Northeast 415 478 24,000  Level Houston Center
07:28AM 32.0719 -86.5414 47° Northeast 419 482 24,000  Level Atlanta Center
07:29AM 32.1533 -86.4308 49° Northeast 424 488 24,000  Level Atlanta Center
07:30AM 32.2181 -86.3319 52° Northeast 431 496 24,000  Level Atlanta Center
07:31AM 32.2972 -86.2183 50° Northeast 439 505 24,000  Level Atlanta Center
07:32AM 32.3867 -86.1075 46° Northeast 445 512 24,000 -600 Level Atlanta Center
07:33AM 32.4594 -86.0008 51° Northeast 450 518 22,900 -960 Descending Atlanta Center
07:34AM 32.5553 -85.8747 48° Northeast 450 518 22,100 -660 Descending Atlanta Center
07:35AM 32.6342 -85.7703 48° Northeast 443 510 21,600 -540 Descending Atlanta Center
07:36AM 32.7128 -85.6633 49° Northeast 431 496 21,100 -540 Descending Atlanta Center
07:37AM 32.7914 -85.5586 48° Northeast 425 489 20,600 -540 Descending Atlanta Center
07:38AM 32.8697 -85.4558 48° Northeast 425 489 20,100 -540 Descending Atlanta Center
07:39AM 32.9461 -85.3483 50° Northeast 425 489 19,600 -960 Descending Atlanta Center
07:40AM 33.0244 -85.2453 48° Northeast 425 489 18,200 -1,740 Descending Atlanta Center
07:41AM 33.0942 -85.1572 47° Northeast 414 476 16,200 -2,040 Descending Atlanta Center
07:42AM 33.1700 -85.0564 48° Northeast 407 468 14,200 -1,200 Descending Atlanta Center
07:43AM 33.2397 -84.9578 50° Northeast 401 461 13,800 -480 Descending Atlanta Center
07:44AM 33.3114 -84.8642 47° Northeast 385 443 13,300 -540 Descending Atlanta Center
07:45AM 33.3808 -84.7703 48° Northeast 380 437 12,800 -540 Descending Atlanta Center
07:46AM 33.4567 -84.6689 48° Northeast 380 437 12,300 -420 Descending Atlanta Center
07:47AM 33.5175 -84.5869 48° Northeast 353 406 12,000 -600 Descending Atlanta Center
07:48AM 33.5469 -84.5100 65° Northeast 280 322 11,200 -1,380 Descending Atlanta Center
07:49AM 33.5453 -84.4250 91° East 249 287 9,300 -2,040 Descending Atlanta Center
07:49AM 33.5500 -84.3667 84° East 249 287 7,800 -1,980 Descending Atlanta TRACON
07:50AM 33.5500 -84.3000 90° East 237 273 6,200 -1,680 Descending Atlanta TRACON
07:51AM 33.5500 -84.2167 90° East 242 278 4,700 -1,440 Descending Atlanta TRACON
07:52AM 33.5500 -84.1333 90° East 242 278 3,500 -900 Descending Atlanta TRACON
07:53AM 33.5833 -84.1167 23° Northeast 201 231 3,000 -300 Descending Atlanta TRACON
07:54AM 33.6167 -84.1500 320° Northwest 185 213 3,000  Level Atlanta TRACON
07:55AM 33.6167 -84.2000 270° West 187 215 3,000  Level Atlanta TRACON
07:56AM 33.6167 -84.2667 270° West 187 215 3,000 -300 Level Atlanta TRACON
07:57AM 33.6167 -84.3333 270° West 170 196 2,500 -660 Descending Atlanta TRACON
07:58AM 33.6167 -84.3667 270° West 141 162 1,800 -780 Descending Atlanta TRACON
08:00AM 33.6333 -84.4167 292° West  Level FlightAware Approximate
08:07AM 33.6367 -84.4279 292° West  Level Estimated